sensor_id;sensor_type;location;lat;lon;timestamp;pressure;altitude;pressure_sealevel;temperature
49154;BMP280;49455;52.252;9.124;2022-08-19T06:00:04;99257.56;;;17.27
49154;BMP280;49455;52.252;9.124;2022-08-19T06:05:12;99258.41;;;17.33
49154;BMP280;49455;52.252;9.124;2022-08-19T06:10:13;99273.91;;;17.57
49154;BMP280;49455;52.252;9.124;2022-08-19T06:15:14;99278.25;;;17.58
49154;BMP280;49455;52.252;9.124;2022-08-19T06:20:15;99267.84;;;17.51
49154;BMP280;49455;52.252;9.124;2022-08-19T06:25:16;99273.91;;;17.54
49154;BMP280;49455;52.252;9.124;2022-08-19T06:30:16;99273.00;;;17.61
49154;BMP280;49455;52.252;9.124;2022-08-19T06:35:17;99275.56;;;17.67
49154;BMP280;49455;52.252;9.124;2022-08-19T06:40:17;99270.28;;;17.76
49154;BMP280;49455;52.252;9.124;2022-08-19T06:45:17;99275.41;;;17.85
49154;BMP280;49455;52.252;9.124;2022-08-19T06:50:18;99274.63;;;17.74
49154;BMP280;49455;52.252;9.124;2022-08-19T06:55:18;99282.34;;;17.91
49154;BMP280;49455;52.252;9.124;2022-08-19T07:00:19;99285.75;;;17.99
49154;BMP280;49455;52.252;9.124;2022-08-19T07:05:19;99291.94;;;17.89
49154;BMP280;49455;52.252;9.124;2022-08-19T07:10:20;99301.22;;;18.29
49154;BMP280;49455;52.252;9.124;2022-08-19T07:15:20;99302.19;;;18.20
49154;BMP280;49455;52.252;9.124;2022-08-19T07:20:21;99321.19;;;18.36
49154;BMP280;49455;52.252;9.124;2022-08-19T07:25:21;99327.56;;;18.10
49154;BMP280;49455;52.252;9.124;2022-08-19T07:30:22;99325.63;;;18.28
49154;BMP280;49455;52.252;9.124;2022-08-19T07:35:22;99332.50;;;18.42
49154;BMP280;49455;52.252;9.124;2022-08-19T07:40:23;99346.38;;;18.50
49154;BMP280;49455;52.252;9.124;2022-08-19T07:45:24;99355.91;;;18.55
49154;BMP280;49455;52.252;9.124;2022-08-19T07:50:24;99359.94;;;18.84
49154;BMP280;49455;52.252;9.124;2022-08-19T07:55:25;99358.19;;;18.91
49154;BMP280;49455;52.252;9.124;2022-08-19T08:00:26;99361.31;;;19.19
49154;BMP280;49455;52.252;9.124;2022-08-19T08:05:26;99362.25;;;19.14
49154;BMP280;49455;52.252;9.124;2022-08-19T08:10:27;99376.78;;;19.40
49154;BMP280;49455;52.252;9.124;2022-08-19T08:15:27;99362.69;;;19.47
49154;BMP280;49455;52.252;9.124;2022-08-19T08:20:28;99375.53;;;19.69
49154;BMP280;49455;52.252;9.124;2022-08-19T08:25:29;99385.66;;;19.94
49154;BMP280;49455;52.252;9.124;2022-08-19T08:30:30;99377.81;;;19.93
49154;BMP280;49455;52.252;9.124;2022-08-19T08:35:31;99374.09;;;20.07
49154;BMP280;49455;52.252;9.124;2022-08-19T08:40:43;99381.34;;;20.44
49154;BMP280;49455;52.252;9.124;2022-08-19T08:45:51;99378.16;;;20.78
49154;BMP280;49455;52.252;9.124;2022-08-19T08:50:53;99382.69;;;20.70
49154;BMP280;49455;52.252;9.124;2022-08-19T08:55:54;99376.63;;;20.65
49154;BMP280;49455;52.252;9.124;2022-08-19T09:00:55;99365.81;;;20.83
49154;BMP280;49455;52.252;9.124;2022-08-19T09:11:08;99360.13;;;21.03
49154;BMP280;49455;52.252;9.124;2022-08-19T09:16:16;99367.34;;;20.92
49154;BMP280;49455;52.252;9.124;2022-08-19T09:21:17;99368.81;;;21.08
49154;BMP280;49455;52.252;9.124;2022-08-19T09:26:19;99371.50;;;21.49
49154;BMP280;49455;52.252;9.124;2022-08-19T09:31:23;99367.75;;;21.60
49154;BMP280;49455;52.252;9.124;2022-08-19T09:36:25;99360.56;;;21.66
49154;BMP280;49455;52.252;9.124;2022-08-19T09:41:26;99353.88;;;21.91
49154;BMP280;49455;52.252;9.124;2022-08-19T09:46:28;99363.56;;;21.89
49154;BMP280;49455;52.252;9.124;2022-08-19T09:51:29;99364.31;;;22.31
49154;BMP280;49455;52.252;9.124;2022-08-19T09:56:30;99352.84;;;22.34
49154;BMP280;49455;52.252;9.124;2022-08-19T10:01:31;99359.72;;;22.39
49154;BMP280;49455;52.252;9.124;2022-08-19T10:06:32;99364.19;;;22.70
49154;BMP280;49455;52.252;9.124;2022-08-19T10:11:34;99363.88;;;22.83
49154;BMP280;49455;52.252;9.124;2022-08-19T10:16:35;99360.13;;;23.22
49154;BMP280;49455;52.252;9.124;2022-08-19T10:21:36;99356.47;;;23.57
49154;BMP280;49455;52.252;9.124;2022-08-19T10:26:38;99361.91;;;23.80
49154;BMP280;49455;52.252;9.124;2022-08-19T10:31:39;99349.00;;;23.71
49154;BMP280;49455;52.252;9.124;2022-08-19T10:36:40;99344.28;;;23.82
49154;BMP280;49455;52.252;9.124;2022-08-19T10:41:40;99332.28;;;23.99
49154;BMP280;49455;52.252;9.124;2022-08-19T10:46:42;99321.34;;;23.84
49154;BMP280;49455;52.252;9.124;2022-08-19T10:51:43;99312.59;;;24.36
49154;BMP280;49455;52.252;9.124;2022-08-19T10:56:43;99309.09;;;24.08
49154;BMP280;49455;52.252;9.124;2022-08-19T11:01:45;99298.16;;;24.46
49154;BMP280;49455;52.252;9.124;2022-08-19T11:06:47;99299.16;;;24.16
49154;BMP280;49455;52.252;9.124;2022-08-19T11:11:48;99289.41;;;24.44
49154;BMP280;49455;52.252;9.124;2022-08-19T11:16:51;99286.63;;;24.72
49154;BMP280;49455;52.252;9.124;2022-08-19T11:21:52;99288.78;;;25.10
49154;BMP280;49455;52.252;9.124;2022-08-19T11:26:55;99275.22;;;25.41
49154;BMP280;49455;52.252;9.124;2022-08-19T11:32:06;99275.63;;;25.31
49154;BMP280;49455;52.252;9.124;2022-08-19T11:37:07;99266.47;;;25.39
49154;BMP280;49455;52.252;9.124;2022-08-19T11:42:08;99280.16;;;26.16
49154;BMP280;49455;52.252;9.124;2022-08-19T11:47:08;99268.72;;;26.36
49154;BMP280;49455;52.252;9.124;2022-08-19T11:52:08;99263.50;;;26.13
49154;BMP280;49455;52.252;9.124;2022-08-19T11:57:09;99263.91;;;26.24
49154;BMP280;49455;52.252;9.124;2022-08-19T12:02:09;99259.94;;;26.14
49154;BMP280;49455;52.252;9.124;2022-08-19T12:07:10;99262.41;;;26.79
49154;BMP280;49455;52.252;9.124;2022-08-19T12:12:10;99269.16;;;26.86
49154;BMP280;49455;52.252;9.124;2022-08-19T12:17:11;99259.16;;;27.10
49154;BMP280;49455;52.252;9.124;2022-08-19T12:22:11;99255.22;;;27.38
49154;BMP280;49455;52.252;9.124;2022-08-19T12:27:12;99251.84;;;27.35
49154;BMP280;49455;52.252;9.124;2022-08-19T12:32:12;99233.34;;;27.52
49154;BMP280;49455;52.252;9.124;2022-08-19T12:37:13;99233.19;;;27.36
49154;BMP280;49455;52.252;9.124;2022-08-19T12:42:14;99225.94;;;27.40
49154;BMP280;49455;52.252;9.124;2022-08-19T12:47:14;99214.00;;;27.12
49154;BMP280;49455;52.252;9.124;2022-08-19T12:52:15;99198.47;;;27.94
49154;BMP280;49455;52.252;9.124;2022-08-19T12:57:15;99193.88;;;27.97
49154;BMP280;49455;52.252;9.124;2022-08-19T13:02:16;99193.44;;;28.40
49154;BMP280;49455;52.252;9.124;2022-08-19T13:07:16;99198.13;;;28.18
49154;BMP280;49455;52.252;9.124;2022-08-19T13:12:17;99205.06;;;28.04
49154;BMP280;49455;52.252;9.124;2022-08-19T13:17:18;99202.88;;;28.45
49154;BMP280;49455;52.252;9.124;2022-08-19T13:22:18;99203.03;;;27.74
49154;BMP280;49455;52.252;9.124;2022-08-19T13:27:19;99197.03;;;27.70
49154;BMP280;49455;52.252;9.124;2022-08-19T13:32:19;99200.88;;;28.67
49154;BMP280;49455;52.252;9.124;2022-08-19T13:37:20;99192.75;;;28.20
49154;BMP280;49455;52.252;9.124;2022-08-19T13:42:20;99200.16;;;28.13
49154;BMP280;49455;52.252;9.124;2022-08-19T13:47:21;99199.97;;;27.81
49154;BMP280;49455;52.252;9.124;2022-08-19T13:52:21;99185.84;;;28.16
49154;BMP280;49455;52.252;9.124;2022-08-19T13:57:22;99182.88;;;28.22
49154;BMP280;49455;52.252;9.124;2022-08-19T14:02:22;99181.88;;;28.58
49154;BMP280;49455;52.252;9.124;2022-08-19T14:07:23;99183.38;;;28.63
49154;BMP280;49455;52.252;9.124;2022-08-19T14:12:23;99185.31;;;27.91
49154;BMP280;49455;52.252;9.124;2022-08-19T14:17:24;99197.63;;;27.03
49154;BMP280;49455;52.252;9.124;2022-08-19T14:22:24;99198.06;;;26.94
49154;BMP280;49455;52.252;9.124;2022-08-19T14:27:25;99192.19;;;26.87
49154;BMP280;49455;52.252;9.124;2022-08-19T14:32:25;99196.16;;;27.15
49154;BMP280;49455;52.252;9.124;2022-08-19T14:37:26;99198.88;;;26.96
49154;BMP280;49455;52.252;9.124;2022-08-19T14:42:26;99202.56;;;26.72
49154;BMP280;49455;52.252;9.124;2022-08-19T14:47:26;99192.47;;;27.00
49154;BMP280;49455;52.252;9.124;2022-08-19T14:52:27;99200.56;;;26.97
49154;BMP280;49455;52.252;9.124;2022-08-19T14:57:27;99195.19;;;27.54
49154;BMP280;49455;52.252;9.124;2022-08-19T15:02:28;99203.06;;;28.26
49154;BMP280;49455;52.252;9.124;2022-08-19T15:07:28;99199.94;;;28.51
49154;BMP280;49455;52.252;9.124;2022-08-19T15:12:29;99199.78;;;28.54
49154;BMP280;49455;52.252;9.124;2022-08-19T15:17:29;99204.13;;;27.87
49154;BMP280;49455;52.252;9.124;2022-08-19T15:22:30;99200.03;;;28.50
49154;BMP280;49455;52.252;9.124;2022-08-19T15:27:30;99208.44;;;28.07
49154;BMP280;49455;52.252;9.124;2022-08-19T15:32:31;99204.13;;;28.05
49154;BMP280;49455;52.252;9.124;2022-08-19T15:37:31;99205.41;;;28.31
49154;BMP280;49455;52.252;9.124;2022-08-19T15:42:32;99202.03;;;28.28
49154;BMP280;49455;52.252;9.124;2022-08-19T15:47:34;99207.81;;;28.19
49154;BMP280;49455;52.252;9.124;2022-08-19T15:52:36;99209.91;;;28.13
49154;BMP280;49455;52.252;9.124;2022-08-19T15:57:36;99208.00;;;28.33
49154;BMP280;49455;52.252;9.124;2022-08-19T16:02:36;99208.13;;;28.13
49154;BMP280;49455;52.252;9.124;2022-08-19T16:07:37;99206.31;;;28.14
49154;BMP280;49455;52.252;9.124;2022-08-19T16:12:37;99207.84;;;28.36
49154;BMP280;49455;52.252;9.124;2022-08-19T16:17:38;99210.94;;;28.10
49154;BMP280;49455;52.252;9.124;2022-08-19T16:22:39;99198.53;;;27.58
49154;BMP280;49455;52.252;9.124;2022-08-19T16:27:40;99201.53;;;27.68
49154;BMP280;49455;52.252;9.124;2022-08-19T16:32:46;99199.41;;;27.40
49154;BMP280;49455;52.252;9.124;2022-08-19T16:37:47;99193.97;;;27.96
49154;BMP280;49455;52.252;9.124;2022-08-19T16:42:47;99190.78;;;27.35
49154;BMP280;49455;52.252;9.124;2022-08-19T16:47:47;99186.69;;;27.81
49154;BMP280;49455;52.252;9.124;2022-08-19T16:52:48;99189.31;;;27.65
49154;BMP280;49455;52.252;9.124;2022-08-19T16:57:48;99187.22;;;27.54
49154;BMP280;49455;52.252;9.124;2022-08-19T17:02:49;99192.25;;;27.42
49154;BMP280;49455;52.252;9.124;2022-08-19T17:07:49;99192.22;;;27.05
49154;BMP280;49455;52.252;9.124;2022-08-19T17:12:50;99183.34;;;27.25
49154;BMP280;49455;52.252;9.124;2022-08-19T17:17:50;99190.78;;;27.35
49154;BMP280;49455;52.252;9.124;2022-08-19T17:22:51;99191.56;;;27.01
49154;BMP280;49455;52.252;9.124;2022-08-19T17:27:51;99180.72;;;26.87
49154;BMP280;49455;52.252;9.124;2022-08-19T17:32:52;99192.06;;;27.08
49154;BMP280;49455;52.252;9.124;2022-08-19T17:37:52;99187.75;;;27.24
49154;BMP280;49455;52.252;9.124;2022-08-19T17:42:53;99178.47;;;26.58
49154;BMP280;49455;52.252;9.124;2022-08-19T17:47:54;99165.75;;;26.27
49154;BMP280;49455;52.252;9.124;2022-08-19T17:52:54;99162.63;;;26.19
49154;BMP280;49455;52.252;9.124;2022-08-19T17:57:55;99156.66;;;26.14
49154;BMP280;49455;52.252;9.124;2022-08-19T18:02:58;99166.81;;;26.03
49154;BMP280;49455;52.252;9.124;2022-08-19T18:07:59;99164.78;;;25.88
49154;BMP280;49455;52.252;9.124;2022-08-19T18:13:00;99157.00;;;25.64
49154;BMP280;49455;52.252;9.124;2022-08-19T18:18:00;99156.47;;;25.34
49154;BMP280;49455;52.252;9.124;2022-08-19T18:23:01;99166.16;;;25.12
49154;BMP280;49455;52.252;9.124;2022-08-19T18:28:02;99159.38;;;24.84
49154;BMP280;49455;52.252;9.124;2022-08-19T18:33:05;99170.44;;;24.69
49154;BMP280;49455;52.252;9.124;2022-08-19T18:38:06;99179.78;;;24.57
49154;BMP280;49455;52.252;9.124;2022-08-19T18:43:07;99189.63;;;24.28
49154;BMP280;49455;52.252;9.124;2022-08-19T18:48:08;99191.13;;;24.10
49154;BMP280;49455;52.252;9.124;2022-08-19T18:53:09;99196.59;;;23.79
49154;BMP280;49455;52.252;9.124;2022-08-19T18:58:09;99207.88;;;23.30
49154;BMP280;49455;52.252;9.124;2022-08-19T19:03:16;99199.31;;;22.93
49154;BMP280;49455;52.252;9.124;2022-08-19T19:08:16;99206.06;;;22.72
49154;BMP280;49455;52.252;9.124;2022-08-19T19:13:17;99217.16;;;22.54
49154;BMP280;49455;52.252;9.124;2022-08-19T19:18:17;99226.25;;;22.43
49154;BMP280;49455;52.252;9.124;2022-08-19T19:23:18;99228.50;;;22.56
49154;BMP280;49455;52.252;9.124;2022-08-19T19:28:20;99248.25;;;22.40
49154;BMP280;49455;52.252;9.124;2022-08-19T19:33:21;99262.38;;;22.38
49154;BMP280;49455;52.252;9.124;2022-08-19T19:38:21;99263.63;;;22.23
49154;BMP280;49455;52.252;9.124;2022-08-19T19:43:22;99266.47;;;22.14
49154;BMP280;49455;52.252;9.124;2022-08-19T19:48:22;99274.94;;;22.27
49154;BMP280;49455;52.252;9.124;2022-08-19T19:53:26;99275.22;;;22.15
49154;BMP280;49455;52.252;9.124;2022-08-19T19:58:28;99280.63;;;22.11
49154;BMP280;49455;52.252;9.124;2022-08-19T20:03:30;99289.44;;;22.07
49154;BMP280;49455;52.252;9.124;2022-08-19T20:08:30;99292.94;;;22.10
49154;BMP280;49455;52.252;9.124;2022-08-19T20:13:32;99287.88;;;22.00
49154;BMP280;49455;52.252;9.124;2022-08-19T20:18:33;99287.50;;;21.80
49154;BMP280;49455;52.252;9.124;2022-08-19T20:23:34;99290.38;;;21.70
49154;BMP280;49455;52.252;9.124;2022-08-19T20:28:34;99288.38;;;21.79
49154;BMP280;49455;52.252;9.124;2022-08-19T20:33:35;99292.16;;;21.69
49154;BMP280;49455;52.252;9.124;2022-08-19T20:38:35;99300.34;;;21.56
49154;BMP280;49455;52.252;9.124;2022-08-19T20:43:37;99294.53;;;21.42
49154;BMP280;49455;52.252;9.124;2022-08-19T20:48:38;99294.47;;;21.44
49154;BMP280;49455;52.252;9.124;2022-08-19T20:53:40;99292.25;;;21.24
49154;BMP280;49455;52.252;9.124;2022-08-19T20:58:40;99297.72;;;21.14
49154;BMP280;49455;52.252;9.124;2022-08-19T21:03:41;99299.56;;;21.09
49154;BMP280;49455;52.252;9.124;2022-08-19T21:08:41;99295.44;;;20.99
49154;BMP280;49455;52.252;9.124;2022-08-19T21:13:42;99304.09;;;21.04
49154;BMP280;49455;52.252;9.124;2022-08-19T21:18:43;99292.75;;;21.01
49154;BMP280;49455;52.252;9.124;2022-08-19T21:23:43;99298.00;;;21.02
49154;BMP280;49455;52.252;9.124;2022-08-19T21:28:44;99305.06;;;20.99
49154;BMP280;49455;52.252;9.124;2022-08-19T21:33:44;99310.34;;;20.97
49154;BMP280;49455;52.252;9.124;2022-08-19T21:38:45;99306.34;;;20.80
49154;BMP280;49455;52.252;9.124;2022-08-19T21:43:45;99310.47;;;20.92
49154;BMP280;49455;52.252;9.124;2022-08-19T21:48:45;99301.03;;;20.82
49154;BMP280;49455;52.252;9.124;2022-08-19T21:53:46;99310.56;;;20.87
49154;BMP280;49455;52.252;9.124;2022-08-19T21:58:46;99318.34;;;20.92
49154;BMP280;49455;52.252;9.124;2022-08-19T22:03:47;99316.44;;;20.99
49154;BMP280;49455;52.252;9.124;2022-08-19T22:08:47;99325.25;;;20.97
49154;BMP280;49455;52.252;9.124;2022-08-19T22:13:48;99319.94;;;20.98
49154;BMP280;49455;52.252;9.124;2022-08-19T22:18:49;99320.19;;;20.87
49154;BMP280;49455;52.252;9.124;2022-08-19T22:23:53;99322.22;;;20.73
49154;BMP280;49455;52.252;9.124;2022-08-19T22:28:53;99319.91;;;20.55
49154;BMP280;49455;52.252;9.124;2022-08-19T22:33:53;99320.84;;;20.51
49154;BMP280;49455;52.252;9.124;2022-08-19T22:38:54;99322.56;;;20.52
49154;BMP280;49455;52.252;9.124;2022-08-19T22:43:54;99311.22;;;20.52
49154;BMP280;49455;52.252;9.124;2022-08-19T22:48:55;99304.44;;;20.40
49154;BMP280;49455;52.252;9.124;2022-08-19T22:53:55;99318.66;;;20.28
49154;BMP280;49455;52.252;9.124;2022-08-19T22:58:56;99316.94;;;20.25
49154;BMP280;49455;52.252;9.124;2022-08-19T23:03:57;99320.63;;;20.15
49154;BMP280;49455;52.252;9.124;2022-08-19T23:08:58;99316.28;;;20.13
49154;BMP280;49455;52.252;9.124;2022-08-19T23:13:58;99316.56;;;19.95
49154;BMP280;49455;52.252;9.124;2022-08-19T23:19:00;99313.78;;;20.07
49154;BMP280;49455;52.252;9.124;2022-08-19T23:24:00;99319.56;;;20.25
49154;BMP280;49455;52.252;9.124;2022-08-19T23:29:01;99325.53;;;20.34
49154;BMP280;49455;52.252;9.124;2022-08-19T23:34:02;99316.88;;;20.28
49154;BMP280;49455;52.252;9.124;2022-08-19T23:39:05;99311.69;;;20.25
